KTIW

Tacoma Narrows Airport

Tacoma, Washington, USA
METAR KTIW 191253Z AUTO 17011KT 10SM FEW026 BKN065 OVC095 07/04 A3023 RMK AO2 SLP239 T00720044 $
Observed Flight Rules
Dec-19 @ 12:53 UTC (45 minutes ago) Visual Flight Rules
Wind Visibility Clouds
170° at 11 knots 10 miles
  • Few at 2,600' AGL
  • Broken at 6,500' AGL
  • Overcast at 9,500' AGL
Temperatures Readings
Current 7°C / 45°F
Dewpoint 4°C / 39°F
Humidity 81%
Altimeter 30.23" Hg
Pressure 1023.9 hPa
Elevation 89
METAR KTIW 191253Z AUTO 17011KT 10SM FEW026 BKN065 OVC095 07/04 A3023 RMK AO2 SLP239 T00720044 $
Observed Flight Rules
Dec-19 @ 12:53 UTC
(45 minutes ago)
VFR
Wind Visibility
170° at 11 knots 10 miles
Clouds
  • Few at 2,600' AGL
  • Broken at 6,500' AGL
  • Overcast at 9,500' AGL
Temperature Dewpoint
7°C / 45°F 4°C / 39°F
Humidity Altimeter Pressure
81% 30.23" Hg 1023.9 hPa